Time;durP1;ratioP1;P1;durP2;ratioP2;P2;SDS_P1;SDS_P2;PMS_P1;PMS_P2;Temp;Humidity;BMP_temperature;BMP_pressure;BME280_temperature;BME280_humidity;BME280_pressure;Samples;Min_cycle;Max_cycle;Signal;HPM_P1;HPM_P2
2023/01/04 00:01:18;;;;;;;32.97;14.55;;;0.90;99.90;;;;;;5061558;28;20024;-62
2023/01/04 00:03:44;;;;;;;30.80;13.20;;;0.80;99.90;;;;;;5063463;28;20039;-62
2023/01/04 00:06:12;;;;;;;33.85;14.65;;;0.70;99.90;;;;;;5056634;28;20029;-62
2023/01/04 00:08:38;;;;;;;29.83;13.35;;;0.60;99.90;;;;;;5060161;28;20071;-62
2023/01/04 00:11:07;;;;;;;29.00;12.70;;;0.60;99.90;;;;;;5067898;28;20123;-61
2023/01/04 00:13:33;;;;;;;30.20;13.52;;;0.60;99.90;;;;;;5070024;28;20025;-61
2023/01/04 00:16:04;;;;;;;29.35;13.10;;;0.60;99.90;;;;;;5067031;28;20077;-62
2023/01/04 00:18:32;;;;;;;27.67;12.13;;;0.50;99.90;;;;;;5068841;28;20079;-63
2023/01/04 00:21:10;;;;;;;30.30;12.35;;;0.50;99.90;;;;;;5059728;28;20154;-63
2023/01/04 00:23:37;;;;;;;26.50;11.85;;;0.50;99.90;;;;;;5068541;28;20021;-62
2023/01/04 00:26:09;;;;;;;28.75;12.27;;;0.50;99.90;;;;;;5065616;28;20540;-62
2023/01/04 00:28:35;;;;;;;30.08;11.98;;;0.50;99.90;;;;;;5062770;28;20473;-62
2023/01/04 00:31:06;;;;;;;27.23;11.90;;;0.50;99.90;;;;;;5065784;28;20054;-63
2023/01/04 00:33:32;;;;;;;25.70;11.43;;;0.50;99.90;;;;;;5071768;28;20032;-62
2023/01/04 00:36:06;;;;;;;24.92;11.32;;;0.50;99.90;;;;;;5069053;28;20097;-62
2023/01/04 00:38:32;;;;;;;28.95;12.10;;;0.50;99.90;;;;;;5069336;28;20036;-62
2023/01/04 00:40:59;;;;;;;28.73;13.30;;;0.40;99.90;;;;;;5067723;28;20410;-62
2023/01/04 00:43:24;;;;;;;32.00;13.25;;;0.50;99.90;;;;;;5069203;28;20028;-62
2023/01/04 00:45:50;;;;;;;32.42;12.98;;;0.40;99.90;;;;;;5066060;28;20102;-62
2023/01/04 00:48:16;;;;;;;31.20;13.02;;;0.50;99.90;;;;;;5065640;28;20024;-62
2023/01/04 00:50:43;;;;;;;31.00;13.25;;;0.50;99.90;;;;;;5068410;28;20350;-61
2023/01/04 00:53:10;;;;;;;27.38;12.20;;;0.50;99.90;;;;;;5060489;28;20059;-62
2023/01/04 00:55:35;;;;;;;31.23;13.30;;;0.50;99.90;;;;;;5066322;28;20032;-62
2023/01/04 00:58:01;;;;;;;29.77;12.77;;;0.50;99.90;;;;;;5067576;28;20036;-62
2023/01/04 01:00:27;;;;;;;34.53;13.60;;;0.40;99.90;;;;;;5064341;28;20122;-62
2023/01/04 01:02:52;;;;;;;29.85;12.93;;;0.50;99.90;;;;;;5060349;28;20024;-62
2023/01/04 01:05:18;;;;;;;30.83;12.15;;;0.40;99.90;;;;;;5066340;28;20089;-62
2023/01/04 01:07:43;;;;;;;27.90;11.85;;;0.30;99.90;;;;;;5066536;28;20485;-62
2023/01/04 01:10:09;;;;;;;29.90;12.73;;;0.30;99.90;;;;;;5066613;28;20042;-62
2023/01/04 01:12:35;;;;;;;29.40;13.05;;;0.30;99.90;;;;;;5069026;28;20036;-62
2023/01/04 01:15:00;;;;;;;30.15;12.35;;;0.30;99.90;;;;;;5066844;28;20071;-63
2023/01/04 01:17:26;;;;;;;40.45;13.55;;;0.30;99.90;;;;;;5066852;28;20077;-62
2023/01/04 01:19:51;;;;;;;34.65;13.52;;;0.30;99.90;;;;;;5069063;28;20218;-63
2023/01/04 01:22:17;;;;;;;33.30;13.68;;;0.30;99.90;;;;;;5060318;28;20074;-63
2023/01/04 01:24:43;;;;;;;28.55;12.95;;;0.20;99.90;;;;;;5064567;28;20029;-62
2023/01/04 01:27:08;;;;;;;30.00;13.02;;;0.20;99.90;;;;;;5065208;28;20100;-61
2023/01/04 01:29:34;;;;;;;35.80;13.30;;;0.20;99.90;;;;;;5068742;28;20534;-62
2023/01/04 01:32:00;;;;;;;30.20;13.23;;;0.20;99.90;;;;;;5060990;28;20156;-61
2023/01/04 01:34:25;;;;;;;32.30;13.77;;;0.20;99.90;;;;;;5068683;28;20145;-62
2023/01/04 01:36:51;;;;;;;34.58;13.90;;;0.30;99.90;;;;;;5064233;28;20397;-62
2023/01/04 01:39:17;;;;;;;28.55;13.95;;;0.30;99.90;;;;;;5059923;28;20040;-62
2023/01/04 01:41:42;;;;;;;29.45;13.55;;;0.30;99.90;;;;;;5059665;28;20036;-63
2023/01/04 01:44:42;;;;;;;29.45;13.27;;;0.30;99.90;;;;;;5065896;28;20035;-63
2023/01/04 01:47:17;;;;;;;30.38;13.35;;;0.30;99.90;;;;;;5065646;28;20052;-62
2023/01/04 01:49:46;;;;;;;29.20;12.35;;;0.20;99.90;;;;;;5063168;28;20135;-62
2023/01/04 01:52:26;;;;;;;31.13;13.07;;;0.20;99.90;;;;;;5067341;28;20043;-61
2023/01/04 01:54:58;;;;;;;29.97;13.23;;;0.20;99.90;;;;;;5059244;28;20039;-62
2023/01/04 01:57:27;;;;;;;31.20;12.38;;;0.10;99.90;;;;;;5060533;28;20086;-62
2023/01/04 01:59:57;;;;;;;25.13;11.73;;;0.00;99.90;;;;;;5066647;28;20056;-62
2023/01/04 02:02:22;;;;;;;29.98;12.10;;;0.00;99.90;;;;;;5057356;28;20094;-62
2023/01/04 02:04:49;;;;;;;27.65;12.52;;;0.00;99.90;;;;;;5066786;28;20037;-62
2023/01/04 02:07:19;;;;;;;28.88;12.30;;;-0.10;99.90;;;;;;5064917;28;20044;-63
2023/01/04 02:09:46;;;;;;;32.88;12.95;;;-0.10;99.90;;;;;;5066550;28;20043;-62
2023/01/04 02:12:13;;;;;;;26.48;11.93;;;0.00;99.90;;;;;;5067277;28;20094;-62
2023/01/04 02:14:40;;;;;;;26.73;12.18;;;0.00;99.90;;;;;;5064638;28;20128;-62
2023/01/04 02:17:12;;;;;;;22.02;10.45;;;0.00;99.90;;;;;;5052283;28;20025;-62
2023/01/04 02:20:09;;;;;;;29.45;11.77;;;0.00;99.90;;;;;;5066890;28;20028;-62
2023/01/04 02:22:37;;;;;;;26.13;10.60;;;-0.10;99.90;;;;;;5064985;28;20055;-61
2023/01/04 02:25:20;;;;;;;27.48;11.23;;;-0.10;99.90;;;;;;5068213;28;20031;-63
2023/01/04 02:27:49;;;;;;;24.63;11.20;;;-0.20;99.90;;;;;;5064984;28;20173;-63
2023/01/04 02:30:43;;;;;;;27.40;11.32;;;-0.30;99.90;;;;;;5064563;28;20607;-61
2023/01/04 02:33:28;;;;;;;25.67;11.07;;;-0.30;99.90;;;;;;5064863;28;20043;-62
2023/01/04 02:36:14;;;;;;;27.00;11.18;;;-0.30;99.90;;;;;;5061794;28;20115;-62
2023/01/04 02:38:57;;;;;;;26.50;11.13;;;-0.30;99.90;;;;;;5060828;28;20035;-61
2023/01/04 02:41:37;;;;;;;35.47;14.00;;;-0.30;99.90;;;;;;5070049;28;20235;-60
2023/01/04 02:47:13;;;;;;;35.42;13.90;;;-0.30;99.90;;;;;;5064395;28;20044;-63
2023/01/04 02:52:23;;;;;;;30.38;12.27;;;-0.20;99.90;;;;;;5066898;28;20032;-62
2023/01/04 02:54:53;;;;;;;27.23;12.05;;;-0.20;99.90;;;;;;5063502;28;20044;-61
2023/01/04 02:57:28;;;;;;;31.50;12.45;;;-0.30;99.90;;;;;;5065769;28;20070;-62
2023/01/04 03:00:26;;;;;;;29.95;13.02;;;-0.30;99.90;;;;;;5065060;28;20047;-62
2023/01/04 03:06:16;;;;;;;33.42;11.90;;;-0.30;99.90;;;;;;5059521;28;20067;-62
2023/01/04 03:09:19;;;;;;;28.08;12.00;;;-0.30;99.90;;;;;;5063529;28;20055;-62
2023/01/04 03:14:59;;;;;;;29.58;11.88;;;-0.50;99.90;;;;;;5068862;28;20528;-61
2023/01/04 03:17:29;;;;;;;25.65;11.18;;;-0.60;99.90;;;;;;5066268;28;20028;-62
2023/01/04 03:19:57;;;;;;;26.17;11.45;;;-0.60;99.90;;;;;;5065751;28;20037;-63
2023/01/04 03:37:19;;;;;;;31.20;12.68;;;-0.70;99.90;;;;;;5066809;28;20067;-63
2023/01/04 03:48:33;;;;;;;;;;;-0.60;99.90;;;;;;5071350;28;20027;-62
2023/01/04 03:51:04;;;;;;;28.35;12.07;;;-0.60;99.90;;;;;;5069788;28;19912;-62
2023/01/04 03:53:37;;;;;;;30.92;12.00;;;-0.40;99.90;;;;;;5070338;28;20088;-62
2023/01/04 03:56:05;;;;;;;27.95;12.60;;;-0.30;99.90;;;;;;5062808;28;20024;-63
2023/01/04 03:58:30;;;;;;;25.50;11.18;;;-0.30;99.90;;;;;;5068731;28;20042;-62
2023/01/04 04:01:02;;;;;;;27.67;12.20;;;-0.30;99.90;;;;;;5067029;28;20473;-62
2023/01/04 04:08:55;;;;;;;24.98;10.85;;;-0.20;99.90;;;;;;5059470;28;20047;-62
2023/01/04 04:11:30;;;;;;;28.70;11.25;;;-0.10;99.90;;;;;;5060895;28;20473;-62
2023/01/04 04:13:56;;;;;;;25.38;11.80;;;-0.10;99.90;;;;;;5070959;28;20039;-62
2023/01/04 04:16:21;;;;;;;23.27;10.90;;;-0.20;99.90;;;;;;5057691;28;20067;-63
2023/01/04 04:18:47;;;;;;;22.73;10.68;;;-0.30;99.90;;;;;;5053876;28;20052;-61
2023/01/04 04:21:13;;;;;;;21.52;9.85;;;-0.40;99.90;;;;;;5056026;28;20107;-62
2023/01/04 04:23:39;;;;;;;25.30;10.48;;;-0.40;99.90;;;;;;5061691;28;20676;-63
2023/01/04 04:26:05;;;;;;;26.70;11.43;;;-0.50;99.90;;;;;;5057558;28;20133;-63
2023/01/04 04:28:32;;;;;;;22.80;10.15;;;-0.60;99.90;;;;;;5057862;28;20025;-61
2023/01/04 04:30:58;;;;;;;23.73;10.35;;;-0.60;99.90;;;;;;5066175;28;20035;-62
2023/01/04 04:33:23;;;;;;;26.00;9.80;;;-0.60;99.90;;;;;;5056002;28;20028;-62
2023/01/04 04:35:50;;;;;;;25.85;10.18;;;-0.60;99.90;;;;;;5061434;28;20044;-62
2023/01/04 04:38:16;;;;;;;19.85;9.13;;;-0.60;99.90;;;;;;5064100;28;20470;-61
2023/01/04 04:43:26;;;;;;;29.95;11.70;;;-0.60;99.90;;;;;;5057551;28;20148;-62
2023/01/04 04:45:51;;;;;;;26.88;10.55;;;-0.70;99.90;;;;;;5058383;28;20104;-63
2023/01/04 04:48:17;;;;;;;26.25;11.25;;;-0.80;99.90;;;;;;5060756;28;20059;-62
2023/01/04 04:50:42;;;;;;;31.02;13.13;;;-0.80;99.90;;;;;;5056346;28;20025;-62
2023/01/04 04:53:08;;;;;;;33.42;12.68;;;-0.80;99.90;;;;;;5060113;28;20037;-63
2023/01/04 04:55:34;;;;;;;28.80;12.45;;;-0.90;99.90;;;;;;5063521;28;20139;-62
2023/01/04 04:57:59;;;;;;;30.20;12.88;;;-0.90;99.90;;;;;;5074980;28;20539;-63
2023/01/04 05:00:25;;;;;;;30.98;12.48;;;-0.90;99.90;;;;;;5062152;28;20032;-63
2023/01/04 05:02:50;;;;;;;33.40;13.13;;;-0.90;99.90;;;;;;5064010;28;20399;-63
2023/01/04 05:05:16;;;;;;;29.70;12.30;;;-0.90;99.90;;;;;;5075113;28;20466;-63
2023/01/04 05:07:42;;;;;;;29.65;13.02;;;-0.80;99.90;;;;;;5068372;28;20032;-63
2023/01/04 05:10:08;;;;;;;27.20;12.65;;;-0.80;99.90;;;;;;5068849;28;20028;-63
2023/01/04 05:15:18;;;;;;;26.52;11.60;;;-0.70;99.90;;;;;;5070978;28;20121;-63
2023/01/04 05:17:43;;;;;;;26.55;11.77;;;-0.60;99.90;;;;;;5066618;28;20059;-62
2023/01/04 05:20:09;;;;;;;25.13;11.63;;;-0.50;99.90;;;;;;5068175;28;20032;-64
2023/01/04 05:22:35;;;;;;;24.90;11.63;;;-0.50;99.90;;;;;;5068001;28;20037;-63
2023/01/04 05:25:00;;;;;;;25.48;11.07;;;-0.40;99.90;;;;;;5065199;28;20029;-62
2023/01/04 05:27:26;;;;;;;26.50;11.52;;;-0.30;99.90;;;;;;5067513;28;20044;-62
2023/01/04 05:32:36;;;;;;;24.63;10.82;;;-0.30;99.90;;;;;;5061922;28;20100;-62
2023/01/04 05:35:02;;;;;;;21.92;8.57;;;-0.40;99.90;;;;;;5068069;28;20175;-62
2023/01/04 05:37:28;;;;;;;18.90;8.60;;;-0.40;99.90;;;;;;5066314;28;20147;-61
2023/01/04 05:39:53;;;;;;;18.95;7.22;;;-0.40;99.90;;;;;;5064019;28;20131;-63
2023/01/04 05:42:25;;;;;;;24.50;8.88;;;-0.40;99.90;;;;;;5057984;28;20048;-61
2023/01/04 05:44:51;;;;;;;19.85;8.82;;;-0.40;99.90;;;;;;5055007;28;20033;-63
2023/01/04 05:47:17;;;;;;;21.45;9.18;;;-0.40;99.90;;;;;;5052996;28;20063;-62
2023/01/04 05:49:43;;;;;;;23.45;10.32;;;-0.40;99.90;;;;;;5054752;28;20024;-62
2023/01/04 05:52:09;;;;;;;26.75;11.52;;;-0.40;99.90;;;;;;5057954;28;20059;-61
2023/01/04 05:54:34;;;;;;;25.90;10.88;;;-0.40;99.90;;;;;;5052521;28;20066;-62
2023/01/04 05:57:00;;;;;;;25.42;11.60;;;-0.40;99.90;;;;;;5061178;28;20434;-62
2023/01/04 05:59:26;;;;;;;26.67;10.55;;;-0.40;99.90;;;;;;5067175;28;20040;-61
2023/01/04 06:01:51;;;;;;;28.33;11.60;;;-0.40;99.90;;;;;;5059712;28;20037;-62
2023/01/04 06:04:17;;;;;;;26.35;11.30;;;-0.40;99.90;;;;;;5048899;28;20371;-62
2023/01/04 06:06:42;;;;;;;28.10;11.85;;;-0.40;99.90;;;;;;5063080;28;20561;-62
2023/01/04 06:09:08;;;;;;;23.30;10.73;;;-0.20;99.90;;;;;;5050439;28;20033;-63
2023/01/04 06:11:34;;;;;;;29.38;11.98;;;-0.20;99.90;;;;;;5058554;28;20040;-63
2023/01/04 06:13:59;;;;;;;22.33;10.85;;;-0.10;99.90;;;;;;5056389;28;20087;-63
2023/01/04 06:16:25;;;;;;;18.45;8.32;;;0.00;99.90;;;;;;5055589;28;20040;-63
2023/01/04 06:18:51;;;;;;;18.58;7.32;;;0.10;99.90;;;;;;5062834;28;20466;-63
2023/01/04 06:21:16;;;;;;;15.65;6.70;;;0.20;99.90;;;;;;5056335;28;20043;-64
2023/01/04 06:23:42;;;;;;;25.08;10.85;;;0.40;99.90;;;;;;5059622;28;20036;-63
2023/01/04 06:26:07;;;;;;;19.20;8.57;;;0.50;99.90;;;;;;5058106;28;20054;-62
2023/01/04 06:28:33;;;;;;;25.73;10.75;;;0.50;99.90;;;;;;5075503;28;20034;-63
2023/01/04 06:31:03;;;;;;;25.75;10.48;;;0.40;99.90;;;;;;5060396;28;20033;-63
2023/01/04 06:33:29;;;;;;;22.75;9.25;;;0.40;99.90;;;;;;5062966;28;20107;-63
2023/01/04 06:35:55;;;;;;;22.05;9.77;;;0.30;99.90;;;;;;5060377;28;20135;-62
2023/01/04 06:38:21;;;;;;;21.45;10.38;;;0.30;99.90;;;;;;5057733;28;20033;-62
2023/01/04 06:40:47;;;;;;;23.05;10.13;;;0.40;99.90;;;;;;5067981;28;20452;-62
2023/01/04 06:43:12;;;;;;;31.23;13.68;;;0.40;99.90;;;;;;5066354;28;20558;-63
2023/01/04 06:45:38;;;;;;;29.30;12.35;;;0.40;99.90;;;;;;5067555;28;20424;-61
2023/01/04 06:48:04;;;;;;;27.60;12.40;;;0.30;99.90;;;;;;5066446;28;20062;-61
2023/01/04 06:50:29;;;;;;;22.63;10.90;;;0.20;99.90;;;;;;5061605;28;20070;-63
2023/01/04 06:52:55;;;;;;;23.83;11.13;;;0.20;99.90;;;;;;5065825;28;20400;-63
2023/01/04 06:55:21;;;;;;;21.88;9.50;;;0.20;99.90;;;;;;5067121;28;20028;-63
2023/01/04 06:57:46;;;;;;;22.38;10.30;;;0.20;99.90;;;;;;5065108;28;20029;-62
2023/01/04 07:00:12;;;;;;;18.35;9.40;;;0.20;99.90;;;;;;5064988;28;20052;-62
2023/01/04 07:02:38;;;;;;;21.02;9.30;;;0.30;99.90;;;;;;5064296;28;20054;-64
2023/01/04 07:05:04;;;;;;;22.40;9.40;;;0.30;99.90;;;;;;5065484;28;20177;-63
2023/01/04 07:07:31;;;;;;;18.58;8.88;;;0.40;99.90;;;;;;5067952;28;20291;-62
2023/01/04 07:09:57;;;;;;;24.00;8.82;;;0.50;99.90;;;;;;5067347;28;20067;-63
2023/01/04 07:12:22;;;;;;;24.30;9.35;;;0.50;99.90;;;;;;5066810;28;20060;-62
2023/01/04 07:14:48;;;;;;;20.00;8.73;;;0.60;99.90;;;;;;5056514;28;20032;-63
2023/01/04 07:17:14;;;;;;;19.90;8.20;;;0.60;99.90;;;;;;5066164;28;20095;-64
2023/01/04 07:19:39;;;;;;;21.35;8.55;;;0.60;99.90;;;;;;5061899;28;20106;-62
2023/01/04 07:22:05;;;;;;;17.60;8.15;;;0.60;99.90;;;;;;5061504;28;20103;-61
2023/01/04 07:24:31;;;;;;;16.98;7.43;;;0.70;99.90;;;;;;5058361;28;20918;-64
2023/01/04 07:26:59;;;;;;;15.88;6.85;;;0.70;99.90;;;;;;5056211;28;20048;-62
2023/01/04 07:29:24;;;;;;;13.35;6.22;;;0.80;99.90;;;;;;5058221;28;20032;-62
2023/01/04 07:31:51;;;;;;;18.90;7.40;;;0.90;99.90;;;;;;5067825;28;20048;-63
2023/01/04 07:34:19;;;;;;;14.38;7.10;;;1.00;99.90;;;;;;5062379;28;20120;-65
2023/01/04 07:36:45;;;;;;;16.42;6.32;;;0.90;99.90;;;;;;5063126;28;20041;-63
2023/01/04 07:39:12;;;;;;;17.77;7.70;;;1.00;99.90;;;;;;5063639;28;20040;-63
2023/01/04 07:41:41;;;;;;;18.45;8.73;;;1.10;99.90;;;;;;5063733;28;20078;-64
2023/01/04 07:44:08;;;;;;;19.40;8.32;;;1.00;99.90;;;;;;5064311;28;20091;-64
2023/01/04 07:46:34;;;;;;;18.80;8.65;;;1.10;99.90;;;;;;5060835;28;20028;-62
2023/01/04 07:49:00;;;;;;;20.02;8.50;;;1.00;99.90;;;;;;5067663;28;20032;-62
2023/01/04 07:51:26;;;;;;;24.50;10.13;;;1.10;99.90;;;;;;5062776;28;20083;-63
2023/01/04 07:53:52;;;;;;;20.73;9.32;;;1.10;99.90;;;;;;5068001;28;20040;-62
2023/01/04 07:56:18;;;;;;;24.92;10.93;;;1.10;99.90;;;;;;5068063;28;20025;-62
2023/01/04 07:58:43;;;;;;;26.42;11.77;;;1.20;99.90;;;;;;5073884;28;20124;-61
2023/01/04 08:01:12;;;;;;;24.35;11.77;;;1.20;99.90;;;;;;5077434;28;20071;-63
2023/01/04 08:03:37;;;;;;;26.27;11.02;;;1.30;99.90;;;;;;5067143;28;20041;-64
2023/01/04 08:06:05;;;;;;;23.83;9.75;;;1.30;99.90;;;;;;5068754;28;20452;-63
2023/01/04 08:08:30;;;;;;;21.13;9.35;;;1.30;99.90;;;;;;5061173;28;20032;-63
2023/01/04 08:11:03;;;;;;;18.55;7.80;;;1.50;99.90;;;;;;5066089;28;21132;-61
2023/01/04 08:13:29;;;;;;;15.68;7.45;;;1.70;99.90;;;;;;5059146;28;20498;-62
2023/01/04 08:15:55;;;;;;;15.00;6.18;;;1.80;99.90;;;;;;5062540;28;20059;-62
2023/01/04 08:18:21;;;;;;;11.32;5.25;;;2.20;99.90;;;;;;5066950;28;20070;-65
2023/01/04 08:20:46;;;;;;;13.93;5.75;;;2.60;99.90;;;;;;5056141;28;20086;-63
2023/01/04 08:23:12;;;;;;;16.42;7.32;;;2.90;99.90;;;;;;5066710;28;20037;-63
2023/01/04 08:25:38;;;;;;;16.50;7.50;;;3.00;99.90;;;;;;5051957;28;20028;-62
2023/01/04 08:28:03;;;;;;;12.63;6.00;;;2.90;99.90;;;;;;5065110;28;20486;-61
2023/01/04 08:30:29;;;;;;;11.25;5.47;;;2.90;99.90;;;;;;5068688;28;20687;-62
2023/01/04 08:32:56;;;;;;;11.20;5.15;;;3.00;99.90;;;;;;5071321;28;20068;-63
2023/01/04 08:35:22;;;;;;;14.25;5.63;;;3.10;99.90;;;;;;5065605;28;20087;-64
2023/01/04 08:37:47;;;;;;;9.68;5.07;;;3.20;99.90;;;;;;5061418;28;20122;-63
2023/01/04 08:40:13;;;;;;;10.00;4.78;;;3.40;99.90;;;;;;5061123;28;20438;-62
2023/01/04 08:42:38;;;;;;;12.50;5.60;;;3.50;99.90;;;;;;5064143;28;20647;-61
2023/01/04 08:45:05;;;;;;;10.18;4.68;;;3.60;99.90;;;;;;5056802;28;20107;-63
2023/01/04 08:47:31;;;;;;;10.05;4.95;;;3.70;99.90;;;;;;5059945;28;20032;-63
2023/01/04 08:49:58;;;;;;;10.32;4.75;;;3.90;99.90;;;;;;5056568;28;20063;-62
2023/01/04 08:52:24;;;;;;;6.68;3.95;;;4.00;99.90;;;;;;5058614;28;20059;-62
2023/01/04 08:54:50;;;;;;;8.65;3.90;;;4.10;99.90;;;;;;5061016;28;20040;-61
2023/01/04 08:57:16;;;;;;;6.57;3.22;;;4.20;99.90;;;;;;5068838;28;20086;-63
2023/01/04 08:59:42;;;;;;;10.75;4.55;;;4.30;99.90;;;;;;5063359;28;20791;-62
2023/01/04 09:02:25;;;;;;;8.55;3.33;;;4.50;99.90;;;;;;5063700;28;20063;-62
2023/01/04 09:04:51;;;;;;;6.72;3.47;;;4.50;99.90;;;;;;5056721;28;20086;-62
2023/01/04 09:07:17;;;;;;;7.57;3.22;;;4.60;99.90;;;;;;5064316;28;20037;-63
2023/01/04 09:09:43;;;;;;;9.65;3.67;;;4.70;99.90;;;;;;5068312;28;20446;-63
2023/01/04 09:12:09;;;;;;;5.50;2.72;;;4.80;99.90;;;;;;5069168;28;20032;-63
2023/01/04 09:14:34;;;;;;;6.70;2.75;;;4.90;99.90;;;;;;5072443;28;20028;-63
2023/01/04 09:17:00;;;;;;;8.50;2.50;;;5.00;99.90;;;;;;5054480;28;20040;-61
2023/01/04 09:19:26;;;;;;;11.43;2.35;;;5.10;99.90;;;;;;5059546;28;20032;-62
2023/01/04 09:21:52;;;;;;;4.78;1.80;;;5.20;99.90;;;;;;5051671;28;20120;-63
2023/01/04 09:24:18;;;;;;;4.10;1.85;;;5.30;99.90;;;;;;5060226;28;20029;-62
2023/01/04 09:26:46;;;;;;;7.35;1.80;;;5.50;99.90;;;;;;5056491;28;20152;-62
2023/01/04 09:29:11;;;;;;;5.35;1.67;;;5.60;99.90;;;;;;5061940;28;20580;-61
2023/01/04 09:31:37;;;;;;;4.88;1.88;;;5.70;99.90;;;;;;5054719;28;20056;-63
2023/01/04 09:34:04;;;;;;;4.18;1.98;;;5.80;99.90;;;;;;5051237;28;20094;-62
2023/01/04 09:36:29;;;;;;;7.40;1.80;;;5.90;99.90;;;;;;5061105;28;20028;-62
2023/01/04 09:38:55;;;;;;;4.63;1.52;;;5.90;99.90;;;;;;5068029;28;20047;-61
2023/01/04 09:41:34;;;;;;;5.97;1.67;;;5.90;99.90;;;;;;5049622;28;20051;-63
2023/01/04 09:44:02;;;;;;;3.47;1.88;;;6.00;99.90;;;;;;5066212;28;20040;-62
2023/01/04 09:46:39;;;;;;;7.35;1.63;;;6.10;99.90;;;;;;5072033;28;20028;-62
2023/01/04 09:49:22;;;;;;;2.55;1.20;;;6.20;99.90;;;;;;5056872;28;20028;-62
2023/01/04 09:52:04;;;;;;;3.47;1.30;;;6.40;99.90;;;;;;5051016;28;20726;-62
2023/01/04 09:55:08;;;;;;;3.97;1.40;;;6.50;99.90;;;;;;5066209;28;20082;-63
2023/01/04 09:57:48;;;;;;;4.90;1.42;;;6.50;99.90;;;;;;5003704;28;20044;-62
2023/01/04 10:00:24;;;;;;;4.38;1.27;;;6.50;99.90;;;;;;5057433;28;20485;-62
2023/01/04 10:03:10;;;;;;;4.38;1.48;;;6.50;99.90;;;;;;5066561;28;20758;-63
2023/01/04 10:05:36;;;;;;;4.07;1.63;;;6.50;99.90;;;;;;5065997;28;20035;-63
2023/01/04 10:08:02;;;;;;;3.83;1.50;;;6.60;99.90;;;;;;5067827;28;20028;-62
2023/01/04 10:10:56;;;;;;;3.55;1.52;;;6.60;99.90;;;;;;5065935;28;20020;-64
2023/01/04 10:13:24;;;;;;;4.45;1.60;;;6.60;99.90;;;;;;5058895;28;20047;-63
2023/01/04 10:16:12;;;;;;;3.80;1.75;;;6.60;99.90;;;;;;5067191;28;20509;-62
2023/01/04 10:18:43;;;;;;;4.65;2.55;;;6.60;99.90;;;;;;5059814;28;20025;-63
2023/01/04 10:21:32;;;;;;;4.70;1.77;;;6.70;99.90;;;;;;5067883;28;20029;-63
2023/01/04 10:24:27;;;;;;;5.63;1.80;;;6.70;99.90;;;;;;5067880;28;20041;-63
2023/01/04 10:27:16;;;;;;;5.22;1.60;;;6.70;99.90;;;;;;5061079;28;20056;-62
2023/01/04 10:29:54;;;;;;;4.85;1.70;;;6.70;99.90;;;;;;5068650;28;20032;-64
2023/01/04 10:32:35;;;;;;;5.38;1.83;;;6.80;99.90;;;;;;5067550;28;20036;-63
2023/01/04 10:35:11;;;;;;;6.00;1.92;;;6.80;99.90;;;;;;5066766;28;20401;-62
2023/01/04 10:37:37;;;;;;;4.75;1.80;;;6.80;99.90;;;;;;5064367;28;20061;-63
2023/01/04 10:40:12;;;;;;;4.70;1.80;;;6.80;99.90;;;;;;5056219;28;20385;-63
2023/01/04 10:42:42;;;;;;;5.15;1.70;;;6.80;99.90;;;;;;5067082;28;20032;-61
2023/01/04 10:45:19;;;;;;;4.45;1.80;;;6.90;99.90;;;;;;5070186;28;20032;-63
2023/01/04 10:47:52;;;;;;;3.45;1.80;;;6.90;99.90;;;;;;5066959;28;20039;-63
2023/01/04 10:50:45;;;;;;;5.15;1.88;;;7.00;99.90;;;;;;5061664;28;20078;-63
2023/01/04 10:53:28;;;;;;;3.78;1.50;;;7.10;99.90;;;;;;5067754;28;20036;-62
2023/01/04 10:56:17;;;;;;;3.75;1.60;;;7.10;99.90;;;;;;5066346;28;20048;-64
2023/01/04 10:58:48;;;;;;;3.78;1.20;;;7.20;99.90;;;;;;5056378;28;20460;-61
2023/01/04 11:01:28;;;;;;;3.15;1.23;;;7.20;99.90;;;;;;5067033;28;20681;-63
2023/01/04 11:04:25;;;;;;;2.43;1.37;;;7.30;99.90;;;;;;5053952;28;20457;-61
2023/01/04 11:07:04;;;;;;;4.22;1.10;;;7.40;99.90;;;;;;5062584;28;20043;-61
2023/01/04 11:09:39;;;;;;;2.70;1.10;;;7.50;99.90;;;;;;5070950;28;20101;-63
2023/01/04 11:12:07;;;;;;;4.68;1.50;;;7.50;99.90;;;;;;5070333;28;20680;-63
2023/01/04 11:14:33;;;;;;;3.28;1.45;;;7.60;99.90;;;;;;5071855;28;20115;-62
2023/01/04 11:17:04;;;;;;;3.90;1.52;;;7.60;99.90;;;;;;5069877;28;20197;-63
2023/01/04 11:19:30;;;;;;;5.05;2.00;;;7.60;99.90;;;;;;5065147;28;20028;-64
2023/01/04 11:22:25;;;;;;;6.60;1.42;;;7.60;99.90;;;;;;5071102;28;20048;-63
2023/01/04 11:24:56;;;;;;;5.25;1.70;;;7.60;99.90;;;;;;5064503;28;20147;-62
2023/01/04 11:27:28;;;;;;;3.65;1.67;;;7.60;99.90;;;;;;5076197;28;20094;-63
2023/01/04 11:30:04;;;;;;;4.88;2.10;;;7.60;99.90;;;;;;5059492;28;20052;-63
2023/01/04 11:32:43;;;;;;;5.55;2.20;;;7.60;99.90;;;;;;5063715;28;20037;-62
2023/01/04 11:35:09;;;;;;;4.03;2.03;;;7.70;99.90;;;;;;5063887;28;20087;-63
2023/01/04 11:37:40;;;;;;;4.15;2.00;;;7.80;99.90;;;;;;5062600;28;20131;-64
2023/01/04 11:40:17;;;;;;;4.03;1.67;;;7.80;99.90;;;;;;5067479;28;20047;-63
2023/01/04 11:42:44;;;;;;;4.82;2.00;;;7.90;99.90;;;;;;5065611;28;20057;-62
2023/01/04 11:45:20;;;;;;;5.93;1.80;;;8.00;99.90;;;;;;5065068;28;20040;-64
2023/01/04 11:47:48;;;;;;;2.95;1.38;;;8.10;99.90;;;;;;5059619;28;20035;-63
2023/01/04 11:50:38;;;;;;;6.60;1.60;;;8.10;99.90;;;;;;5061103;28;20090;-62
2023/01/04 11:53:24;;;;;;;4.43;1.63;;;8.20;99.90;;;;;;5057735;28;20033;-64
2023/01/04 11:55:51;;;;;;;4.13;1.90;;;8.30;99.90;;;;;;5054893;28;20369;-63
2023/01/04 11:58:18;;;;;;;3.55;1.70;;;8.40;99.90;;;;;;5069884;28;20115;-64
2023/01/04 12:00:55;;;;;;;4.05;1.70;;;8.50;99.90;;;;;;5069226;28;20033;-63
2023/01/04 12:03:26;;;;;;;6.22;1.50;;;8.50;99.90;;;;;;5066257;28;20485;-64
2023/01/04 12:05:52;;;;;;;3.28;1.63;;;8.40;99.90;;;;;;5066651;28;20103;-62
2023/01/04 12:08:44;;;;;;;5.07;1.80;;;8.40;99.90;;;;;;5065330;28;20035;-61
2023/01/04 12:11:18;;;;;;;2.58;1.48;;;8.50;99.90;;;;;;5049394;28;20041;-63
2023/01/04 12:13:44;;;;;;;2.78;1.27;;;8.40;99.90;;;;;;5058966;28;20102;-63
2023/01/04 12:16:10;;;;;;;2.50;1.05;;;8.50;99.90;;;;;;5062987;28;20044;-62
2023/01/04 12:18:41;;;;;;;5.57;1.40;;;8.60;99.90;;;;;;5060922;28;20029;-62
2023/01/04 12:21:15;;;;;;;2.47;1.17;;;8.60;99.90;;;;;;5059966;28;20076;-63
2023/01/04 12:23:41;;;;;;;2.40;0.98;;;8.60;99.90;;;;;;5061013;28;20035;-63
2023/01/04 12:26:10;;;;;;;2.20;0.95;;;8.70;99.90;;;;;;5052494;28;20049;-63
2023/01/04 12:28:39;;;;;;;3.17;1.15;;;8.80;99.90;;;;;;5063974;28;20040;-66
2023/01/04 12:31:20;;;;;;;3.42;1.08;;;8.70;99.90;;;;;;5059016;28;20059;-63
2023/01/04 12:33:56;;;;;;;;;;;8.80;99.90;;;;;;5069435;28;20045;-62
2023/01/04 12:36:36;;;;;;;2.20;0.77;;;8.80;99.90;;;;;;5061482;28;19920;-63
2023/01/04 12:39:29;;;;;;;4.18;1.10;;;8.90;99.90;;;;;;5059588;28;20480;-63
2023/01/04 12:42:00;;;;;;;2.58;0.88;;;8.90;99.90;;;;;;5056417;28;20037;-63
2023/01/04 12:44:38;;;;;;;3.70;0.90;;;8.90;99.90;;;;;;5063379;28;20028;-63
2023/01/04 12:50:26;;;;;;;2.95;0.90;;;9.00;99.90;;;;;;5058408;28;20856;-63
2023/01/04 12:52:54;;;;;;;3.28;1.02;;;9.00;99.90;;;;;;5056777;28;20033;-63
2023/01/04 12:55:32;;;;;;;1.55;0.70;;;9.00;99.90;;;;;;5058655;28;20052;-62
2023/01/04 12:58:27;;;;;;;2.60;1.13;;;9.00;99.90;;;;;;5049865;28;20040;-63
2023/01/04 13:00:52;;;;;;;1.98;0.95;;;9.00;99.90;;;;;;5062482;28;20064;-63
2023/01/04 13:03:18;;;;;;;3.25;0.90;;;9.00;99.90;;;;;;5066315;28;20471;-65
2023/01/04 13:05:53;;;;;;;2.83;1.10;;;9.00;99.90;;;;;;5065249;28;20028;-64
2023/01/04 13:08:19;;;;;;;2.20;0.90;;;8.90;99.90;;;;;;5066500;28;20034;-63
2023/01/04 13:10:50;;;;;;;2.13;1.10;;;9.00;99.90;;;;;;5066997;28;20032;-64
2023/01/04 13:13:34;;;;;;;2.83;1.08;;;8.90;99.90;;;;;;5066315;28;20464;-63
2023/01/04 13:16:02;;;;;;;3.70;1.17;;;8.90;99.90;;;;;;5060761;28;20039;-63
2023/01/04 13:18:50;;;;;;;2.78;1.10;;;8.90;99.90;;;;;;5068896;28;20075;-63
2023/01/04 13:21:40;;;;;;;4.75;1.38;;;9.00;99.90;;;;;;5054835;28;20488;-63
2023/01/04 13:24:35;;;;;;;1.88;1.10;;;9.00;99.90;;;;;;5052567;28;20024;-63
2023/01/04 13:27:06;;;;;;;5.03;1.20;;;9.00;99.90;;;;;;5067310;28;20056;-63
2023/01/04 13:29:33;;;;;;;2.28;1.05;;;9.00;99.90;;;;;;5075586;28;20090;-63
2023/01/04 13:32:00;;;;;;;3.00;1.25;;;9.10;99.90;;;;;;5065542;28;20073;-60
2023/01/04 13:34:39;;;;;;;1.73;0.95;;;9.10;99.90;;;;;;5051774;28;20029;-62
2023/01/04 13:37:12;;;;;;;4.22;1.08;;;9.20;99.90;;;;;;5050652;28;20044;-62
2023/01/04 13:39:58;;;;;;;2.38;1.20;;;9.10;99.90;;;;;;5048597;28;20377;-63
2023/01/04 13:42:29;;;;;;;3.47;1.33;;;9.20;99.90;;;;;;5054570;28;20177;-62
2023/01/04 13:45:07;;;;;;;;;;;9.30;99.90;;;;;;5056279;28;20029;-62
2023/01/04 13:47:40;;;;;;;3.45;1.17;;;9.30;99.90;;;;;;5061401;28;19908;-62
2023/01/04 13:50:34;;;;;;;2.05;0.88;;;9.30;99.90;;;;;;5064703;28;20393;-61
2023/01/04 13:53:00;;;;;;;2.25;0.90;;;9.40;99.90;;;;;;5053442;28;20033;-62
2023/01/04 13:55:34;;;;;;;5.45;1.10;;;9.50;99.90;;;;;;5058073;28;20736;-63